sensor_id;sensor_type;location;lat;lon;timestamp;pressure;altitude;pressure_sealevel;temperature;humidity
10897;BME280;5501;51.176;6.470;2023-03-22T00:04:02;100550.69;;;12.88;86.43
10897;BME280;5501;51.176;6.470;2023-03-22T00:09:03;100535.53;;;12.88;86.27
10897;BME280;5501;51.176;6.470;2023-03-22T00:14:05;100543.50;;;12.67;87.80
10897;BME280;5501;51.176;6.470;2023-03-22T00:19:07;100538.00;;;12.71;87.97
10897;BME280;5501;51.176;6.470;2023-03-22T00:24:08;100535.66;;;12.64;88.17
10897;BME280;5501;51.176;6.470;2023-03-22T00:29:09;100528.84;;;12.78;88.11
10897;BME280;5501;51.176;6.470;2023-03-22T00:34:11;100522.72;;;12.75;88.32
10897;BME280;5501;51.176;6.470;2023-03-22T00:39:13;100505.97;;;12.71;88.43
10897;BME280;5501;51.176;6.470;2023-03-22T00:44:14;100506.88;;;12.72;88.81
10897;BME280;5501;51.176;6.470;2023-03-22T00:49:15;100502.81;;;12.62;89.65
10897;BME280;5501;51.176;6.470;2023-03-22T00:54:17;100490.59;;;12.78;88.54
10897;BME280;5501;51.176;6.470;2023-03-22T00:59:19;100497.41;;;12.63;89.40
10897;BME280;5501;51.176;6.470;2023-03-22T01:04:21;100488.34;;;12.67;89.01
10897;BME280;5501;51.176;6.470;2023-03-22T01:09:27;100482.16;;;12.45;89.72
10897;BME280;5501;51.176;6.470;2023-03-22T01:14:29;100471.47;;;12.45;89.95
10897;BME280;5501;51.176;6.470;2023-03-22T01:19:32;100476.28;;;12.36;90.76
10897;BME280;5501;51.176;6.470;2023-03-22T01:24:34;100463.66;;;12.41;91.12
10897;BME280;5501;51.176;6.470;2023-03-22T01:29:35;100461.22;;;12.35;91.05
10897;BME280;5501;51.176;6.470;2023-03-22T01:34:37;100461.50;;;12.27;91.50
10897;BME280;5501;51.176;6.470;2023-03-22T01:39:39;100444.84;;;12.22;91.58
10897;BME280;5501;51.176;6.470;2023-03-22T01:44:43;100437.31;;;12.10;91.62
10897;BME280;5501;51.176;6.470;2023-03-22T01:49:45;100430.88;;;12.16;91.23
10897;BME280;5501;51.176;6.470;2023-03-22T01:54:47;100415.09;;;12.10;91.87
10897;BME280;5501;51.176;6.470;2023-03-22T02:00:07;100411.84;;;12.02;92.06
10897;BME280;5501;51.176;6.470;2023-03-22T02:05:13;100411.63;;;12.08;91.57
10897;BME280;5501;51.176;6.470;2023-03-22T02:10:16;100401.34;;;11.99;92.05
10897;BME280;5501;51.176;6.470;2023-03-22T02:15:28;100391.88;;;11.90;92.28
10897;BME280;5501;51.176;6.470;2023-03-22T02:41:49;100357.63;;;11.57;94.27
10897;BME280;5501;51.176;6.470;2023-03-22T02:47:04;100359.84;;;11.46;94.81
10897;BME280;5501;51.176;6.470;2023-03-22T02:57:12;100355.41;;;11.45;94.94
10897;BME280;5501;51.176;6.470;2023-03-22T03:02:15;100350.44;;;11.36;95.61
10897;BME280;5501;51.176;6.470;2023-03-22T03:07:20;100348.47;;;11.41;95.22
10897;BME280;5501;51.176;6.470;2023-03-22T03:12:24;100359.81;;;11.23;96.13
10897;BME280;5501;51.176;6.470;2023-03-22T03:27:37;100338.84;;;11.37;95.90
10897;BME280;5501;51.176;6.470;2023-03-22T03:32:48;100332.38;;;11.44;95.37
10897;BME280;5501;51.176;6.470;2023-03-22T03:37:54;100330.75;;;11.40;95.28
10897;BME280;5501;51.176;6.470;2023-03-22T03:42:59;100336.97;;;11.40;95.38
10897;BME280;5501;51.176;6.470;2023-03-22T03:48:05;100341.66;;;11.34;95.68
10897;BME280;5501;51.176;6.470;2023-03-22T03:53:10;100341.31;;;11.43;95.10
10897;BME280;5501;51.176;6.470;2023-03-22T03:58:12;100336.19;;;11.37;95.58
10897;BME280;5501;51.176;6.470;2023-03-22T04:03:15;100333.81;;;11.29;95.42
10897;BME280;5501;51.176;6.470;2023-03-22T04:08:35;100342.44;;;11.13;96.62
10897;BME280;5501;51.176;6.470;2023-03-22T04:13:37;100337.22;;;11.10;96.85
10897;BME280;5501;51.176;6.470;2023-03-22T04:18:43;100331.19;;;11.05;97.20
10897;BME280;5501;51.176;6.470;2023-03-22T04:23:46;100316.28;;;11.01;96.90
10897;BME280;5501;51.176;6.470;2023-03-22T04:28:48;100317.75;;;11.08;96.79
10897;BME280;5501;51.176;6.470;2023-03-22T04:33:50;100317.31;;;10.97;97.58
10897;BME280;5501;51.176;6.470;2023-03-22T04:39:15;100319.81;;;11.00;97.97
10897;BME280;5501;51.176;6.470;2023-03-22T04:44:25;100312.00;;;11.20;96.57
10897;BME280;5501;51.176;6.470;2023-03-22T04:49:27;100315.47;;;11.22;95.86
10897;BME280;5501;51.176;6.470;2023-03-22T04:54:29;100308.53;;;11.18;96.24
10897;BME280;5501;51.176;6.470;2023-03-22T04:59:30;100306.81;;;11.17;96.07
10897;BME280;5501;51.176;6.470;2023-03-22T05:04:33;100313.28;;;11.33;95.02
10897;BME280;5501;51.176;6.470;2023-03-22T05:09:42;100312.94;;;11.42;95.29
10897;BME280;5501;51.176;6.470;2023-03-22T05:14:44;100310.50;;;11.13;95.66
10897;BME280;5501;51.176;6.470;2023-03-22T05:19:48;100309.13;;;11.26;95.29
10897;BME280;5501;51.176;6.470;2023-03-22T05:24:50;100312.81;;;11.45;94.14
10897;BME280;5501;51.176;6.470;2023-03-22T05:29:56;100314.53;;;11.47;94.55
10897;BME280;5501;51.176;6.470;2023-03-22T05:35:08;100312.34;;;11.57;93.30
10897;BME280;5501;51.176;6.470;2023-03-22T05:40:14;100311.22;;;11.64;93.41
10897;BME280;5501;51.176;6.470;2023-03-22T05:45:17;100322.56;;;11.69;92.90
10897;BME280;5501;51.176;6.470;2023-03-22T05:50:23;100316.91;;;11.78;92.52
10897;BME280;5501;51.176;6.470;2023-03-22T05:55:25;100315.69;;;12.08;93.47
10897;BME280;5501;51.176;6.470;2023-03-22T06:00:31;100316.28;;;11.93;91.89
10897;BME280;5501;51.176;6.470;2023-03-22T06:05:51;100317.72;;;12.01;90.82
10897;BME280;5501;51.176;6.470;2023-03-22T06:11:03;100321.00;;;12.08;90.05
10897;BME280;5501;51.176;6.470;2023-03-22T06:16:05;100323.13;;;12.00;90.47
10897;BME280;5501;51.176;6.470;2023-03-22T06:21:07;100319.03;;;12.13;89.86
10897;BME280;5501;51.176;6.470;2023-03-22T06:26:10;100309.34;;;12.10;90.10
10897;BME280;5501;51.176;6.470;2023-03-22T06:31:13;100304.41;;;12.23;89.69
10897;BME280;5501;51.176;6.470;2023-03-22T06:36:28;100309.84;;;12.20;89.70
10897;BME280;5501;51.176;6.470;2023-03-22T06:41:48;100316.91;;;12.21;89.27
10897;BME280;5501;51.176;6.470;2023-03-22T06:46:49;100297.47;;;12.19;88.63
10897;BME280;5501;51.176;6.470;2023-03-22T06:52:16;100301.59;;;12.26;88.22
10897;BME280;5501;51.176;6.470;2023-03-22T06:57:18;100298.06;;;12.47;87.15
10897;BME280;5501;51.176;6.470;2023-03-22T07:02:19;100302.59;;;12.65;85.81
10897;BME280;5501;51.176;6.470;2023-03-22T07:07:41;100302.06;;;12.77;84.26
10897;BME280;5501;51.176;6.470;2023-03-22T07:12:42;100297.94;;;12.90;83.95
10897;BME280;5501;51.176;6.470;2023-03-22T07:17:47;100303.78;;;12.99;82.99
10897;BME280;5501;51.176;6.470;2023-03-22T07:22:49;100297.94;;;12.90;83.04
10897;BME280;5501;51.176;6.470;2023-03-22T07:27:54;100297.16;;;12.68;82.79
10897;BME280;5501;51.176;6.470;2023-03-22T07:32:55;100313.00;;;12.71;81.99
10897;BME280;5501;51.176;6.470;2023-03-22T07:37:57;100307.47;;;12.55;82.48
10897;BME280;5501;51.176;6.470;2023-03-22T07:43:04;100311.66;;;12.61;82.52
10897;BME280;5501;51.176;6.470;2023-03-22T07:48:23;100307.94;;;12.65;81.44
10897;BME280;5501;51.176;6.470;2023-03-22T07:53:43;100325.13;;;12.58;81.34
10897;BME280;5501;51.176;6.470;2023-03-22T07:58:45;100321.47;;;12.60;81.08
10897;BME280;5501;51.176;6.470;2023-03-22T08:03:46;100320.59;;;12.60;82.28
10897;BME280;5501;51.176;6.470;2023-03-22T08:09:04;100320.00;;;12.53;82.17
10897;BME280;5501;51.176;6.470;2023-03-22T08:14:05;100328.75;;;12.77;81.77
10897;BME280;5501;51.176;6.470;2023-03-22T08:19:10;100319.03;;;12.76;80.97
10897;BME280;5501;51.176;6.470;2023-03-22T08:24:11;100327.88;;;12.98;80.47
10897;BME280;5501;51.176;6.470;2023-03-22T08:29:24;100323.75;;;12.89;79.67
10897;BME280;5501;51.176;6.470;2023-03-22T08:34:27;100323.03;;;12.86;80.26
10897;BME280;5501;51.176;6.470;2023-03-22T08:39:28;100316.94;;;13.04;78.99
10897;BME280;5501;51.176;6.470;2023-03-22T08:44:45;100306.00;;;13.28;77.79
10897;BME280;5501;51.176;6.470;2023-03-22T08:49:47;100314.22;;;13.24;76.67
10897;BME280;5501;51.176;6.470;2023-03-22T08:54:56;100310.34;;;13.31;74.99
10897;BME280;5501;51.176;6.470;2023-03-22T09:00:16;100306.97;;;13.46;72.71
10897;BME280;5501;51.176;6.470;2023-03-22T09:05:32;100301.72;;;13.63;71.95
10897;BME280;5501;51.176;6.470;2023-03-22T09:10:36;100296.88;;;13.89;71.45
10897;BME280;5501;51.176;6.470;2023-03-22T09:15:38;100307.94;;;13.82;70.57
10897;BME280;5501;51.176;6.470;2023-03-22T09:20:55;100306.03;;;13.65;71.55
10897;BME280;5501;51.176;6.470;2023-03-22T09:26:03;100294.78;;;13.59;70.91
10897;BME280;5501;51.176;6.470;2023-03-22T09:31:06;100297.00;;;13.68;70.32
10897;BME280;5501;51.176;6.470;2023-03-22T09:36:09;100302.22;;;13.71;69.78
10897;BME280;5501;51.176;6.470;2023-03-22T09:41:15;100308.66;;;13.85;68.89
10897;BME280;5501;51.176;6.470;2023-03-22T09:46:51;100302.69;;;14.16;69.23
10897;BME280;5501;51.176;6.470;2023-03-22T09:51:46;100290.19;;;14.52;66.47
10897;BME280;5501;51.176;6.470;2023-03-22T09:56:57;100287.38;;;14.38;65.31
10897;BME280;5501;51.176;6.470;2023-03-22T10:02:01;100276.97;;;14.66;65.24
10897;BME280;5501;51.176;6.470;2023-03-22T10:07:20;100277.53;;;14.72;64.19
10897;BME280;5501;51.176;6.470;2023-03-22T10:12:25;100281.38;;;14.50;65.72
10897;BME280;5501;51.176;6.470;2023-03-22T10:17:28;100275.09;;;14.68;64.92
10897;BME280;5501;51.176;6.470;2023-03-22T10:22:32;100276.00;;;14.50;65.03
10897;BME280;5501;51.176;6.470;2023-03-22T10:27:35;100275.25;;;14.48;65.03
10897;BME280;5501;51.176;6.470;2023-03-22T10:32:39;100282.66;;;14.60;64.50
10897;BME280;5501;51.176;6.470;2023-03-22T10:37:58;100291.41;;;14.28;65.21
10897;BME280;5501;51.176;6.470;2023-03-22T10:43:11;100284.84;;;14.35;65.36
10897;BME280;5501;51.176;6.470;2023-03-22T10:48:22;100276.47;;;14.24;66.43
10897;BME280;5501;51.176;6.470;2023-03-22T10:58:30;100273.03;;;14.39;67.41
10897;BME280;5501;51.176;6.470;2023-03-22T11:08:41;100269.75;;;14.34;66.77
10897;BME280;5501;51.176;6.470;2023-03-22T11:13:50;100274.91;;;14.37;66.61
10897;BME280;5501;51.176;6.470;2023-03-22T11:18:53;100279.31;;;14.19;66.86
10897;BME280;5501;51.176;6.470;2023-03-22T11:24:02;100279.00;;;14.27;66.38
10897;BME280;5501;51.176;6.470;2023-03-22T11:29:26;100282.63;;;14.26;65.08
10897;BME280;5501;51.176;6.470;2023-03-22T11:34:27;100279.34;;;14.38;64.35
10897;BME280;5501;51.176;6.470;2023-03-22T11:39:29;100270.84;;;14.30;64.57
10897;BME280;5501;51.176;6.470;2023-03-22T11:44:31;100274.13;;;14.35;64.60
10897;BME280;5501;51.176;6.470;2023-03-22T11:49:44;100266.97;;;14.35;64.71
10897;BME280;5501;51.176;6.470;2023-03-22T11:54:46;100264.88;;;14.59;63.43
10897;BME280;5501;51.176;6.470;2023-03-22T11:59:53;100261.13;;;14.27;64.40
10897;BME280;5501;51.176;6.470;2023-03-22T12:05:05;100257.06;;;14.54;63.77
10897;BME280;5501;51.176;6.470;2023-03-22T12:10:13;100246.97;;;14.59;63.83
10897;BME280;5501;51.176;6.470;2023-03-22T12:20:31;100239.81;;;14.60;66.33
10897;BME280;5501;51.176;6.470;2023-03-22T12:25:34;100237.63;;;14.51;65.64
10897;BME280;5501;51.176;6.470;2023-03-22T12:30:37;100243.47;;;14.59;65.92
10897;BME280;5501;51.176;6.470;2023-03-22T12:35:44;100246.44;;;14.36;66.47
10897;BME280;5501;51.176;6.470;2023-03-22T12:40:46;100251.31;;;14.45;67.11
10897;BME280;5501;51.176;6.470;2023-03-22T12:45:49;100248.63;;;14.28;67.31
10897;BME280;5501;51.176;6.470;2023-03-22T12:50:57;100248.63;;;14.62;66.39
10897;BME280;5501;51.176;6.470;2023-03-22T12:56:00;100239.81;;;14.60;67.02
10897;BME280;5501;51.176;6.470;2023-03-22T13:07:07;100235.50;;;14.57;66.74
10897;BME280;5501;51.176;6.470;2023-03-22T13:11:47;100231.47;;;14.66;66.55
10897;BME280;5501;51.176;6.470;2023-03-22T13:17:09;100224.38;;;14.65;66.15
10897;BME280;5501;51.176;6.470;2023-03-22T13:22:14;100226.03;;;14.67;66.02
10897;BME280;5501;51.176;6.470;2023-03-22T13:27:17;100214.31;;;14.70;66.18
10897;BME280;5501;51.176;6.470;2023-03-22T13:32:26;100222.50;;;14.84;66.08
10897;BME280;5501;51.176;6.470;2023-03-22T13:37:34;100220.91;;;14.80;65.57
10897;BME280;5501;51.176;6.470;2023-03-22T13:42:38;100218.06;;;15.00;65.40
10897;BME280;5501;51.176;6.470;2023-03-22T13:47:44;100216.03;;;14.88;65.72
10897;BME280;5501;51.176;6.470;2023-03-22T13:52:57;100209.56;;;14.92;65.53
10897;BME280;5501;51.176;6.470;2023-03-22T13:57:59;100196.41;;;14.87;65.68
10897;BME280;5501;51.176;6.470;2023-03-22T14:03:04;100200.72;;;14.90;65.14
10897;BME280;5501;51.176;6.470;2023-03-22T14:08:12;100190.53;;;14.81;66.16
10897;BME280;5501;51.176;6.470;2023-03-22T14:13:27;100182.06;;;14.88;65.92
10897;BME280;5501;51.176;6.470;2023-03-22T14:18:31;100185.25;;;15.12;65.72
10897;BME280;5501;51.176;6.470;2023-03-22T14:23:41;100187.47;;;15.04;65.84
10897;BME280;5501;51.176;6.470;2023-03-22T14:28:43;100172.09;;;15.07;65.67
10897;BME280;5501;51.176;6.470;2023-03-22T14:33:43;100174.41;;;14.98;66.53
10897;BME280;5501;51.176;6.470;2023-03-22T14:38:45;100164.50;;;15.00;66.98
10897;BME280;5501;51.176;6.470;2023-03-22T14:43:47;100160.69;;;15.04;66.85
10897;BME280;5501;51.176;6.470;2023-03-22T14:48:52;100178.66;;;15.02;67.63
10897;BME280;5501;51.176;6.470;2023-03-22T14:53:53;100181.06;;;14.91;67.87
10897;BME280;5501;51.176;6.470;2023-03-22T14:58:55;100180.09;;;14.92;68.78
10897;BME280;5501;51.176;6.470;2023-03-22T15:03:57;100183.09;;;15.03;68.74
10897;BME280;5501;51.176;6.470;2023-03-22T15:09:08;100168.44;;;14.93;69.46
10897;BME280;5501;51.176;6.470;2023-03-22T15:14:09;100163.56;;;14.68;70.05
10897;BME280;5501;51.176;6.470;2023-03-22T15:19:14;100165.78;;;14.60;71.10
10897;BME280;5501;51.176;6.470;2023-03-22T15:24:35;100143.50;;;14.60;70.83
10897;BME280;5501;51.176;6.470;2023-03-22T15:29:39;100146.13;;;14.77;70.37
10897;BME280;5501;51.176;6.470;2023-03-22T15:34:41;100137.09;;;14.62;71.11
10897;BME280;5501;51.176;6.470;2023-03-22T15:39:41;100139.50;;;14.84;70.40
10897;BME280;5501;51.176;6.470;2023-03-22T15:44:48;100121.97;;;14.94;69.71
10897;BME280;5501;51.176;6.470;2023-03-22T15:49:52;100116.53;;;14.95;69.68
10897;BME280;5501;51.176;6.470;2023-03-22T15:54:57;100121.97;;;14.94;70.73
10897;BME280;5501;51.176;6.470;2023-03-22T16:00:07;100138.47;;;15.02;70.99
10897;BME280;5501;51.176;6.470;2023-03-22T16:05:11;100127.31;;;14.94;70.13
10897;BME280;5501;51.176;6.470;2023-03-22T16:10:15;100132.88;;;14.91;70.63
10897;BME280;5501;51.176;6.470;2023-03-22T16:15:20;100128.91;;;15.13;70.11
10897;BME280;5501;51.176;6.470;2023-03-22T16:20:21;100137.41;;;15.21;69.96
10897;BME280;5501;51.176;6.470;2023-03-22T16:25:22;100127.97;;;14.99;70.53
10897;BME280;5501;51.176;6.470;2023-03-22T16:30:25;100123.72;;;15.26;69.34
10897;BME280;5501;51.176;6.470;2023-03-22T16:35:25;100130.81;;;15.11;69.88
10897;BME280;5501;51.176;6.470;2023-03-22T16:40:26;100136.00;;;14.99;70.47
10897;BME280;5501;51.176;6.470;2023-03-22T16:45:31;100133.56;;;15.10;69.31
10897;BME280;5501;51.176;6.470;2023-03-22T16:50:32;100131.69;;;15.12;68.70
10897;BME280;5501;51.176;6.470;2023-03-22T16:55:33;100143.38;;;14.94;69.08
10897;BME280;5501;51.176;6.470;2023-03-22T17:00:34;100139.03;;;14.76;69.31
10897;BME280;5501;51.176;6.470;2023-03-22T17:05:35;100138.22;;;14.91;68.99
10897;BME280;5501;51.176;6.470;2023-03-22T17:10:37;100129.56;;;14.86;69.81
10897;BME280;5501;51.176;6.470;2023-03-22T17:15:40;100116.22;;;14.69;70.22
10897;BME280;5501;51.176;6.470;2023-03-22T17:20:41;100112.06;;;14.63;70.33
10897;BME280;5501;51.176;6.470;2023-03-22T17:25:43;100110.88;;;14.69;70.29
10897;BME280;5501;51.176;6.470;2023-03-22T17:30:46;100125.38;;;14.65;70.82
10897;BME280;5501;51.176;6.470;2023-03-22T17:35:47;100121.94;;;14.78;71.21
10897;BME280;5501;51.176;6.470;2023-03-22T17:40:47;100107.44;;;14.67;71.03
10897;BME280;5501;51.176;6.470;2023-03-22T17:45:48;100114.28;;;14.55;72.06
10897;BME280;5501;51.176;6.470;2023-03-22T17:50:48;100114.22;;;14.57;72.78
10897;BME280;5501;51.176;6.470;2023-03-22T17:55:49;100114.47;;;14.52;73.25
10897;BME280;5501;51.176;6.470;2023-03-22T18:00:49;100108.91;;;14.40;74.13
10897;BME280;5501;51.176;6.470;2023-03-22T18:05:50;100105.16;;;14.59;73.64
10897;BME280;5501;51.176;6.470;2023-03-22T18:10:50;100122.38;;;14.54;74.37
10897;BME280;5501;51.176;6.470;2023-03-22T18:15:51;100112.34;;;14.42;75.39
10897;BME280;5501;51.176;6.470;2023-03-22T18:20:51;100119.09;;;14.49;75.39
10897;BME280;5501;51.176;6.470;2023-03-22T18:26:02;100111.91;;;14.34;76.77
10897;BME280;5501;51.176;6.470;2023-03-22T18:31:03;100110.81;;;14.38;77.29
10897;BME280;5501;51.176;6.470;2023-03-22T18:36:04;100109.59;;;14.43;78.01
10897;BME280;5501;51.176;6.470;2023-03-22T18:41:06;100106.84;;;14.45;79.50
10897;BME280;5501;51.176;6.470;2023-03-22T18:46:10;100106.44;;;14.35;79.24
10897;BME280;5501;51.176;6.470;2023-03-22T18:51:10;100106.56;;;14.34;79.01
10897;BME280;5501;51.176;6.470;2023-03-22T18:56:11;100090.00;;;14.43;78.60
10897;BME280;5501;51.176;6.470;2023-03-22T19:01:12;100085.28;;;14.48;78.40
10897;BME280;5501;51.176;6.470;2023-03-22T19:06:13;100087.50;;;14.40;79.96
10897;BME280;5501;51.176;6.470;2023-03-22T19:11:16;100102.78;;;14.21;82.14
10897;BME280;5501;51.176;6.470;2023-03-22T19:16:16;100083.13;;;14.22;82.55
10897;BME280;5501;51.176;6.470;2023-03-22T19:21:18;100072.44;;;14.22;81.91
10897;BME280;5501;51.176;6.470;2023-03-22T19:26:19;100068.53;;;14.10;83.13
10897;BME280;5501;51.176;6.470;2023-03-22T19:31:19;100074.16;;;14.23;83.23
10897;BME280;5501;51.176;6.470;2023-03-22T19:36:20;100062.34;;;14.27;82.85
10897;BME280;5501;51.176;6.470;2023-03-22T19:41:20;100067.19;;;14.19;83.42
10897;BME280;5501;51.176;6.470;2023-03-22T19:46:20;100058.78;;;14.26;83.49
10897;BME280;5501;51.176;6.470;2023-03-22T19:51:21;100059.25;;;14.17;84.22
10897;BME280;5501;51.176;6.470;2023-03-22T19:56:21;100057.47;;;14.18;83.77
10897;BME280;5501;51.176;6.470;2023-03-22T20:01:22;100051.31;;;14.16;83.69
10897;BME280;5501;51.176;6.470;2023-03-22T20:06:22;100042.19;;;14.20;83.14
10897;BME280;5501;51.176;6.470;2023-03-22T20:11:23;100045.81;;;14.19;82.87
10897;BME280;5501;51.176;6.470;2023-03-22T20:16:23;100051.16;;;14.19;83.35
10897;BME280;5501;51.176;6.470;2023-03-22T20:21:24;100038.75;;;14.18;83.07
10897;BME280;5501;51.176;6.470;2023-03-22T20:26:25;100037.66;;;14.22;82.62
10897;BME280;5501;51.176;6.470;2023-03-22T20:31:26;100038.59;;;14.21;82.71
10897;BME280;5501;51.176;6.470;2023-03-22T20:36:27;100037.31;;;14.11;84.93
10897;BME280;5501;51.176;6.470;2023-03-22T20:41:27;100036.41;;;13.95;87.26
10897;BME280;5501;51.176;6.470;2023-03-22T20:46:27;100018.88;;;13.72;88.10
10897;BME280;5501;51.176;6.470;2023-03-22T20:51:28;100007.41;;;13.87;87.59
10897;BME280;5501;51.176;6.470;2023-03-22T20:56:30;100006.53;;;13.87;87.07
10897;BME280;5501;51.176;6.470;2023-03-22T21:01:30;100000.31;;;13.86;86.99
10897;BME280;5501;51.176;6.470;2023-03-22T21:06:31;100000.63;;;13.97;85.72
10897;BME280;5501;51.176;6.470;2023-03-22T21:11:33;99981.91;;;13.97;85.36
10897;BME280;5501;51.176;6.470;2023-03-22T21:16:33;99987.94;;;14.01;84.92
10897;BME280;5501;51.176;6.470;2023-03-22T21:21:34;99991.41;;;14.03;84.69
10897;BME280;5501;51.176;6.470;2023-03-22T21:26:35;99989.84;;;13.99;86.04
10897;BME280;5501;51.176;6.470;2023-03-22T21:31:38;99981.22;;;13.94;85.93
10897;BME280;5501;51.176;6.470;2023-03-22T21:36:39;99982.94;;;13.95;86.09
10897;BME280;5501;51.176;6.470;2023-03-22T21:41:39;99977.59;;;13.95;86.24
10897;BME280;5501;51.176;6.470;2023-03-22T21:46:39;99965.94;;;13.96;86.40
10897;BME280;5501;51.176;6.470;2023-03-22T21:51:45;99966.41;;;14.04;85.90
10897;BME280;5501;51.176;6.470;2023-03-22T21:56:46;99970.91;;;14.03;85.69
10897;BME280;5501;51.176;6.470;2023-03-22T22:01:46;99965.34;;;13.91;86.25
10897;BME280;5501;51.176;6.470;2023-03-22T22:06:47;99972.09;;;13.98;85.66
10897;BME280;5501;51.176;6.470;2023-03-22T22:11:48;99968.09;;;13.89;86.53
10897;BME280;5501;51.176;6.470;2023-03-22T22:16:49;99955.69;;;14.04;85.62
10897;BME280;5501;51.176;6.470;2023-03-22T22:21:50;99943.53;;;13.98;85.90
10897;BME280;5501;51.176;6.470;2023-03-22T22:26:52;99947.50;;;13.74;88.20
10897;BME280;5501;51.176;6.470;2023-03-22T22:31:52;99947.75;;;13.70;88.63
10897;BME280;5501;51.176;6.470;2023-03-22T22:36:52;99956.53;;;13.72;88.37
10897;BME280;5501;51.176;6.470;2023-03-22T22:41:53;99959.28;;;13.70;88.80
10897;BME280;5501;51.176;6.470;2023-03-22T22:46:53;99955.31;;;13.62;89.34
10897;BME280;5501;51.176;6.470;2023-03-22T22:51:54;99946.88;;;13.69;87.86
10897;BME280;5501;51.176;6.470;2023-03-22T22:56:54;99935.91;;;13.75;86.95
10897;BME280;5501;51.176;6.470;2023-03-22T23:01:55;99931.84;;;13.84;86.39
10897;BME280;5501;51.176;6.470;2023-03-22T23:06:56;99923.06;;;13.82;86.01
10897;BME280;5501;51.176;6.470;2023-03-22T23:11:56;99938.25;;;13.97;85.87
10897;BME280;5501;51.176;6.470;2023-03-22T23:16:57;99919.09;;;13.89;85.90
10897;BME280;5501;51.176;6.470;2023-03-22T23:21:58;99920.34;;;13.99;85.64
10897;BME280;5501;51.176;6.470;2023-03-22T23:27:02;99921.03;;;14.02;85.77
10897;BME280;5501;51.176;6.470;2023-03-22T23:32:03;99919.72;;;13.94;86.01
10897;BME280;5501;51.176;6.470;2023-03-22T23:37:03;99921.28;;;13.98;86.30
10897;BME280;5501;51.176;6.470;2023-03-22T23:42:09;99913.44;;;13.95;86.47
10897;BME280;5501;51.176;6.470;2023-03-22T23:47:12;99915.00;;;13.99;86.44
10897;BME280;5501;51.176;6.470;2023-03-22T23:52:13;99902.38;;;14.01;86.63
10897;BME280;5501;51.176;6.470;2023-03-22T23:57:13;99885.59;;;13.99;86.56
